Midland, Virginia
Current Conditions -  °F | °C
As of 2:15 PM on Saturday 20 Dec 2014 (Local Time) from KHWY Reporting Station
Overcast Overcast  
Wind Chill: 38°   Ceiling: 12000
Heat Index: 38°   Visibility: 10mi
Dew Point: 29°   Wind: 3mph
Humidity: 71%   Direction: 240°WSW
Pressure: 30.24"   Gusts: NA
Location:  38.6°N, 77.72°W
Report Text: KHWY 201915Z AUTO 24003KT 10SM OVC120 03/M02 A3024 RMK AO2 T00321016
Loading
Personal Weather Stations






























Interactive Weather Map New forecast layout! Learn more

10-Day Weather Forecast

Advertisements
Track Severe Weather on mobile